Terminal Aerodrome Forecast
Issued by NWS Charleston, WV

Current Version | Previous Version | Graphics & Text | Print | Product List | Glossary On
Versions: 1 2 3 4 5 6 7 8 9 10 11 12 13 14 15 16 17 18 19 20 21 22 23 24 25 26 27
000
FTUS41 KRLX 172103 AAB
TAFHTS
TAF AMD
KHTS 172103Z 1721/1818 28011G21KT P6SM FEW050
     FM180100 24004KT P6SM SKC
     FM180800 VRB02KT P6SM BKN040=

USA.gov is the U.S. government's official web portal to all federal, state and local government web resources and services.